createdAt,value
2022-09-06T00:00:25.065Z,12.00
2022-09-06T00:02:52.491Z,12.00
2022-09-06T00:05:19.877Z,12.00
2022-09-06T00:07:46.866Z,11.90
2022-09-06T00:10:15.179Z,11.90
2022-09-06T00:12:42.081Z,11.80
2022-09-06T00:15:09.820Z,11.70
2022-09-06T00:17:36.864Z,11.60
2022-09-06T00:20:08.592Z,11.60
2022-09-06T00:22:36.662Z,11.60
2022-09-06T00:25:07.003Z,11.50
2022-09-06T00:27:34.721Z,11.40
2022-09-06T00:30:01.819Z,11.30
2022-09-06T00:32:28.727Z,11.20
2022-09-06T00:34:55.743Z,11.10
2022-09-06T00:37:22.677Z,11.00
2022-09-06T00:39:49.729Z,11.00
2022-09-06T00:42:16.657Z,10.90
2022-09-06T00:44:43.537Z,10.90
2022-09-06T00:47:10.558Z,10.90
2022-09-06T00:49:49.145Z,10.90
2022-09-06T00:52:19.800Z,10.80
2022-09-06T00:54:49.916Z,10.70
2022-09-06T00:57:18.634Z,10.70
2022-09-06T00:59:48.025Z,10.60
2022-09-06T01:02:15.217Z,10.50
2022-09-06T01:04:45.180Z,10.40
2022-09-06T01:07:54.659Z,10.40
2022-09-06T01:10:39.928Z,10.50
2022-09-06T01:13:34.332Z,10.50
2022-09-06T01:16:06.868Z,10.50
2022-09-06T01:19:34.590Z,10.50
2022-09-06T01:22:40.153Z,10.30
2022-09-06T01:26:06.261Z,10.30
2022-09-06T01:28:44.994Z,10.20
2022-09-06T01:31:33.175Z,10.10
2022-09-06T01:34:05.952Z,10.00
2022-09-06T01:37:09.354Z,10.00
2022-09-06T01:39:39.356Z,10.00
2022-09-06T01:42:08.728Z,9.80
2022-09-06T01:44:40.931Z,9.80
2022-09-06T01:47:31.974Z,9.70
2022-09-06T01:50:54.016Z,9.80
2022-09-06T01:53:55.812Z,9.70
2022-09-06T01:56:51.665Z,9.60
2022-09-06T01:59:45.912Z,9.50
2022-09-06T02:02:35.639Z,9.40
2022-09-06T02:05:27.775Z,9.40
2022-09-06T02:08:17.999Z,9.30
2022-09-06T02:11:14.600Z,9.30
2022-09-06T02:13:53.772Z,9.30
2022-09-06T02:16:26.647Z,9.20
2022-09-06T02:19:13.698Z,9.20
2022-09-06T02:21:45.696Z,9.20
2022-09-06T02:24:25.804Z,9.20
2022-09-06T02:26:52.885Z,9.10
2022-09-06T02:29:20.120Z,9.10
2022-09-06T02:32:21.034Z,9.20
2022-09-06T02:34:51.240Z,9.30
2022-09-06T02:37:19.337Z,9.40
2022-09-06T02:39:46.587Z,9.40
2022-09-06T02:42:15.712Z,9.50
2022-09-06T02:44:42.708Z,9.60
2022-09-06T02:47:10.080Z,9.70
2022-09-06T02:49:37.282Z,9.70
2022-09-06T02:52:04.292Z,9.70
2022-09-06T02:54:31.301Z,9.70
2022-09-06T02:56:58.298Z,9.70
2022-09-06T02:59:25.297Z,9.70
2022-09-06T03:01:52.223Z,9.70
2022-09-06T03:04:19.251Z,9.70
2022-09-06T03:18:33.091Z,9.70
2022-09-06T03:21:00.084Z,10.20
2022-09-06T03:23:29.526Z,10.00
2022-09-06T03:25:57.141Z,9.90
2022-09-06T03:28:24.722Z,9.80
2022-09-06T03:30:53.032Z,9.60
2022-09-06T03:33:21.426Z,9.60
2022-09-06T03:35:58.137Z,9.50
2022-09-06T03:38:28.030Z,9.40
2022-09-06T03:40:55.685Z,9.40
2022-09-06T03:43:25.020Z,9.30
2022-09-06T03:45:55.427Z,9.30
2022-09-06T03:48:24.970Z,9.30
2022-09-06T03:50:56.405Z,9.30
2022-09-06T03:53:26.559Z,9.30
2022-09-06T03:55:57.667Z,9.20
2022-09-06T03:58:30.460Z,9.20
2022-09-06T04:01:09.734Z,9.10
2022-09-06T04:03:38.124Z,9.10
2022-09-06T04:06:06.840Z,9.10
2022-09-06T04:08:35.522Z,9.10
2022-09-06T04:11:02.696Z,9.10
2022-09-06T04:13:31.749Z,9.10
2022-09-06T04:15:58.953Z,9.10
2022-09-06T04:18:26.600Z,9.10
2022-09-06T04:20:56.371Z,9.10
2022-09-06T04:23:25.744Z,9.20
2022-09-06T04:25:56.529Z,9.20
2022-09-06T04:28:24.690Z,9.20
2022-09-06T04:31:04.604Z,9.30
2022-09-06T04:33:34.328Z,9.40
2022-09-06T04:36:04.609Z,9.50
2022-09-06T04:38:43.511Z,9.60
2022-09-06T04:41:13.933Z,9.60
2022-09-06T04:43:40.870Z,9.70
2022-09-06T04:46:26.965Z,9.80
2022-09-06T04:48:55.656Z,9.90
2022-09-06T04:51:24.903Z,10.10
2022-09-06T04:53:52.429Z,10.20
2022-09-06T04:56:23.569Z,10.40
2022-09-06T04:58:52.672Z,10.50
2022-09-06T05:01:20.581Z,10.70
2022-09-06T05:03:48.044Z,10.80
2022-09-06T05:06:20.966Z,11.00
2022-09-06T05:08:48.760Z,11.20
2022-09-06T05:11:16.390Z,11.50
2022-09-06T05:13:46.402Z,11.70
2022-09-06T05:16:13.568Z,12.00
2022-09-06T05:18:40.530Z,12.30
2022-09-06T05:21:07.772Z,12.30
2022-09-06T05:23:34.988Z,12.40
2022-09-06T05:26:02.557Z,12.60
2022-09-06T05:28:29.821Z,12.90
2022-09-06T05:31:12.129Z,13.10
2022-09-06T05:33:39.773Z,13.40
2022-09-06T05:36:09.565Z,13.60
2022-09-06T05:38:36.506Z,13.70
2022-09-06T05:41:03.488Z,13.80
2022-09-06T05:43:30.460Z,13.90
2022-09-06T05:45:57.476Z,14.00
2022-09-06T05:48:24.465Z,14.20
2022-09-06T05:51:06.056Z,14.40
2022-09-06T05:53:45.047Z,14.60
2022-09-06T05:56:16.996Z,14.70
2022-09-06T05:58:44.183Z,15.00
2022-09-06T06:01:18.708Z,15.20
2022-09-06T06:03:52.632Z,15.30
2022-09-06T06:06:20.721Z,15.50
2022-09-06T06:08:48.319Z,15.70
2022-09-06T06:11:16.452Z,15.90
2022-09-06T06:13:44.205Z,16.00
2022-09-06T06:16:15.416Z,16.00
2022-09-06T06:18:47.663Z,16.20
2022-09-06T06:21:26.669Z,16.40
2022-09-06T06:24:00.253Z,16.40
2022-09-06T06:26:29.489Z,16.40
2022-09-06T06:28:58.915Z,16.50
2022-09-06T06:31:25.864Z,16.50
2022-09-06T06:33:53.043Z,16.40
2022-09-06T06:36:27.232Z,16.40
2022-09-06T06:38:55.965Z,16.50
2022-09-06T06:41:27.674Z,16.50
2022-09-06T06:43:59.846Z,16.50
2022-09-06T06:46:31.635Z,16.70
2022-09-06T06:48:58.860Z,16.70
2022-09-06T06:51:29.640Z,17.00
2022-09-06T06:53:56.993Z,17.20
2022-09-06T06:56:25.225Z,17.30
2022-09-06T06:58:55.703Z,17.60
2022-09-06T07:01:24.264Z,17.70
2022-09-06T07:03:52.143Z,17.80
2022-09-06T07:06:21.211Z,18.10
2022-09-06T07:08:49.221Z,18.20
2022-09-06T07:11:21.618Z,18.20
2022-09-06T07:13:51.725Z,18.40
2022-09-06T07:16:25.252Z,18.40
2022-09-06T07:18:54.642Z,18.30
2022-09-06T07:21:42.367Z,18.30
2022-09-06T07:24:09.944Z,18.40
2022-09-06T07:26:39.674Z,18.50
2022-09-06T07:29:08.580Z,18.50
2022-09-06T07:34:27.620Z,18.70
2022-09-06T07:36:58.693Z,18.50
2022-09-06T07:39:25.635Z,18.40
2022-09-06T07:41:52.663Z,18.40
2022-09-06T07:44:19.629Z,18.60
2022-09-06T07:46:47.105Z,18.50
2022-09-06T07:49:14.029Z,18.70
2022-09-06T07:51:40.943Z,18.80
2022-09-06T07:54:29.470Z,18.60
2022-09-06T07:56:54.793Z,18.70
2022-09-06T07:59:21.757Z,18.70
2022-09-06T08:01:50.047Z,18.90
2022-09-06T08:04:17.053Z,19.00
2022-09-06T08:09:36.423Z,18.70
2022-09-06T08:12:07.390Z,18.90
2022-09-06T08:14:35.203Z,18.80
2022-09-06T08:17:05.227Z,18.80
2022-09-06T08:19:32.229Z,18.80
2022-09-06T08:21:59.184Z,18.90
2022-09-06T08:24:26.311Z,18.90
2022-09-06T08:26:53.241Z,19.00
2022-09-06T08:29:20.167Z,19.20
2022-09-06T08:31:47.983Z,19.40
2022-09-06T08:34:15.984Z,19.60
2022-09-06T08:36:45.372Z,19.80
2022-09-06T08:39:12.641Z,20.10
2022-09-06T08:42:00.811Z,20.30
2022-09-06T08:47:21.723Z,20.10
2022-09-06T08:50:02.499Z,20.00
2022-09-06T08:53:13.139Z,20.30
2022-09-06T08:56:13.233Z,20.20
2022-09-06T08:59:08.259Z,20.10
2022-09-06T09:02:17.268Z,20.30
2022-09-06T09:05:04.695Z,20.40
2022-09-06T09:07:47.856Z,20.40
2022-09-06T09:10:43.642Z,20.60
2022-09-06T09:13:26.998Z,20.70
2022-09-06T09:15:54.003Z,20.90
2022-09-06T09:18:28.142Z,21.30
2022-09-06T09:20:55.230Z,21.50
2022-09-06T09:23:22.389Z,21.50
2022-09-06T09:25:52.772Z,21.40
2022-09-06T09:28:23.835Z,21.70
2022-09-06T09:30:54.125Z,21.70
2022-09-06T09:33:29.239Z,21.50
2022-09-06T09:36:01.209Z,21.50
2022-09-06T09:38:42.482Z,21.60
2022-09-06T09:41:11.353Z,22.10
2022-09-06T09:43:42.407Z,22.00
2022-09-06T09:46:24.544Z,21.80
2022-09-06T09:49:13.539Z,21.30
2022-09-06T09:51:44.532Z,21.10
2022-09-06T09:54:15.189Z,21.20
2022-09-06T09:56:54.343Z,20.90
2022-09-06T09:59:32.052Z,21.00
2022-09-06T10:02:02.078Z,21.10
2022-09-06T10:07:17.601Z,21.60
2022-09-06T10:09:50.543Z,21.80
2022-09-06T10:12:32.324Z,22.10
2022-09-06T10:15:02.518Z,22.50
2022-09-06T10:17:49.591Z,22.70
2022-09-06T10:20:16.698Z,22.90
2022-09-06T10:23:05.111Z,22.80
2022-09-06T10:25:50.395Z,22.40
2022-09-06T10:28:44.142Z,22.30
2022-09-06T10:31:37.158Z,22.40
2022-09-06T10:34:41.038Z,22.70
2022-09-06T10:37:33.333Z,22.70
2022-09-06T10:40:13.997Z,22.40
2022-09-06T10:42:55.420Z,22.10
2022-09-06T10:45:44.591Z,22.00
2022-09-06T10:48:45.877Z,21.70
2022-09-06T10:51:41.261Z,21.60
2022-09-06T10:54:15.280Z,21.70
2022-09-06T11:10:17.415Z,21.20
2022-09-06T11:13:26.930Z,21.60
2022-09-06T11:16:39.248Z,21.20
2022-09-06T11:19:53.733Z,20.90
2022-09-06T11:22:47.044Z,20.80
2022-09-06T11:25:50.725Z,20.50
2022-09-06T11:28:31.298Z,20.40
2022-09-06T11:30:59.137Z,20.20
2022-09-06T11:33:31.571Z,20.40
2022-09-06T11:36:27.502Z,20.20
2022-09-06T11:39:01.244Z,20.30
2022-09-06T11:41:34.784Z,20.20
2022-09-06T11:44:04.157Z,19.90
2022-09-06T11:46:34.143Z,19.70
2022-09-06T11:49:05.053Z,19.60
2022-09-06T11:51:44.851Z,19.70
2022-09-06T11:54:23.462Z,19.70
2022-09-06T11:57:13.936Z,19.70
2022-09-06T11:59:47.696Z,19.80
2022-09-06T12:02:38.210Z,19.80
2022-09-06T12:05:07.417Z,20.00
2022-09-06T12:07:37.906Z,20.20
2022-09-06T12:10:29.648Z,20.20
2022-09-06T12:12:57.556Z,20.30
2022-09-06T12:15:26.173Z,20.20
2022-09-06T12:17:53.718Z,20.30
2022-09-06T12:20:48.298Z,20.20
2022-09-06T12:23:50.784Z,20.40
2022-09-06T12:27:08.029Z,20.50
2022-09-06T12:29:36.074Z,20.80
2022-09-06T12:32:05.880Z,20.90
2022-09-06T12:34:37.640Z,21.10
2022-09-06T12:37:11.070Z,21.20
2022-09-06T12:39:38.361Z,21.10
2022-09-06T12:42:13.317Z,21.10
2022-09-06T12:44:49.690Z,21.20
2022-09-06T12:47:37.773Z,21.20
2022-09-06T12:50:24.041Z,21.10
2022-09-06T12:53:01.014Z,21.20
2022-09-06T12:55:38.589Z,21.20
2022-09-06T12:58:12.216Z,21.20
2022-09-06T13:00:44.299Z,21.20
2022-09-06T13:03:29.763Z,21.20
2022-09-06T13:06:02.255Z,21.40
2022-09-06T13:08:47.410Z,21.30
2022-09-06T13:11:20.605Z,21.30
2022-09-06T13:13:55.361Z,21.30
2022-09-06T13:16:33.162Z,21.40
2022-09-06T13:19:38.193Z,21.40
2022-09-06T13:22:11.249Z,21.40
2022-09-06T13:24:47.942Z,21.40
2022-09-06T13:27:38.244Z,21.40
2022-09-06T13:30:10.469Z,21.40
2022-09-06T13:32:47.660Z,21.40
2022-09-06T13:35:24.897Z,21.50
2022-09-06T13:37:52.043Z,21.50
2022-09-06T13:41:09.276Z,21.40
2022-09-06T13:43:34.146Z,21.50
2022-09-06T13:46:06.075Z,21.50
2022-09-06T13:48:34.435Z,21.50
2022-09-06T13:51:05.123Z,21.60
2022-09-06T13:53:33.167Z,21.60
2022-09-06T13:56:00.115Z,21.60
2022-09-06T13:58:28.012Z,21.60
2022-09-06T14:00:55.306Z,21.50
2022-09-06T14:03:31.151Z,21.40
2022-09-06T14:06:00.329Z,21.30
2022-09-06T14:08:43.696Z,21.30
2022-09-06T14:11:16.939Z,21.30
2022-09-06T14:13:44.223Z,21.30
2022-09-06T14:16:12.142Z,21.40
2022-09-06T14:18:40.166Z,21.40
2022-09-06T14:21:07.588Z,21.50
2022-09-06T14:23:34.559Z,21.60
2022-09-06T14:26:04.023Z,21.40
2022-09-06T14:28:33.931Z,21.40
2022-09-06T14:31:19.300Z,21.40
2022-09-06T14:33:46.740Z,21.30
2022-09-06T14:36:17.988Z,21.30
2022-09-06T14:38:46.744Z,21.20
2022-09-06T14:41:16.552Z,21.30
2022-09-06T14:43:48.203Z,21.30
2022-09-06T14:46:18.241Z,21.40
2022-09-06T14:48:46.331Z,21.50
2022-09-06T14:51:19.203Z,21.60
2022-09-06T14:53:46.663Z,21.50
2022-09-06T14:56:14.765Z,21.30
2022-09-06T14:58:43.080Z,21.10
2022-09-06T15:01:21.441Z,20.60
2022-09-06T15:03:53.591Z,20.50
2022-09-06T15:06:23.445Z,20.20
2022-09-06T15:08:58.951Z,20.20
2022-09-06T15:11:39.426Z,20.20
2022-09-06T15:14:14.234Z,20.20
2022-09-06T15:16:41.131Z,20.20
2022-09-06T15:19:08.960Z,20.20
2022-09-06T15:21:36.301Z,20.10
2022-09-06T15:24:06.418Z,20.20
2022-09-06T15:26:36.544Z,20.30
2022-09-06T15:29:04.020Z,20.50
2022-09-06T15:31:34.403Z,20.40
2022-09-06T15:34:02.852Z,20.40
2022-09-06T15:36:31.301Z,20.30
2022-09-06T15:39:01.291Z,20.30
2022-09-06T15:41:35.650Z,20.30
2022-09-06T15:44:09.659Z,20.30
2022-09-06T15:46:37.358Z,20.30
2022-09-06T15:49:09.189Z,20.30
2022-09-06T15:51:39.697Z,20.30
2022-09-06T15:54:07.581Z,20.20
2022-09-06T15:56:34.591Z,20.10
2022-09-06T15:59:01.467Z,20.20
2022-09-06T16:01:28.524Z,20.10
2022-09-06T16:04:05.527Z,20.10
2022-09-06T16:06:42.037Z,20.10
2022-09-06T16:09:14.512Z,20.10
2022-09-06T16:11:42.172Z,20.00
2022-09-06T16:14:14.071Z,20.00
2022-09-06T16:16:43.610Z,19.90
2022-09-06T16:19:12.492Z,19.80
2022-09-06T16:21:42.165Z,19.80
2022-09-06T16:24:13.043Z,19.90
2022-09-06T16:26:43.423Z,19.80
2022-09-06T16:29:13.085Z,19.70
2022-09-06T16:31:40.923Z,19.50
2022-09-06T16:34:12.985Z,19.40
2022-09-06T16:36:40.829Z,19.40
2022-09-06T16:39:08.743Z,19.30
2022-09-06T16:41:45.797Z,19.20
2022-09-06T16:44:17.666Z,19.10
2022-09-06T16:46:49.782Z,19.10
2022-09-06T16:49:17.898Z,19.20
2022-09-06T16:51:45.869Z,19.10
2022-09-06T16:54:14.593Z,19.20
2022-09-06T16:56:42.157Z,19.30
2022-09-06T16:59:10.968Z,19.30
2022-09-06T17:01:41.867Z,19.30
2022-09-06T17:04:09.887Z,19.30
2022-09-06T17:06:44.103Z,19.10
2022-09-06T17:09:19.159Z,18.90
2022-09-06T17:11:49.970Z,18.80
2022-09-06T17:14:18.093Z,18.80
2022-09-06T17:17:03.264Z,18.80
2022-09-06T17:19:33.909Z,18.70
2022-09-06T17:22:00.766Z,18.60
2022-09-06T17:24:27.909Z,18.50
2022-09-06T17:26:54.969Z,18.50
2022-09-06T17:29:24.541Z,18.30
2022-09-06T17:31:52.261Z,18.40
2022-09-06T17:34:19.367Z,18.40
2022-09-06T17:36:46.441Z,18.20
2022-09-06T17:39:23.339Z,18.10
2022-09-06T17:41:53.339Z,18.10
2022-09-06T17:44:25.533Z,18.00
2022-09-06T17:47:13.078Z,17.90
2022-09-06T17:49:41.402Z,17.80
2022-09-06T17:52:08.428Z,17.70
2022-09-06T17:54:35.735Z,17.70
2022-09-06T17:57:02.619Z,17.70
2022-09-06T17:59:35.117Z,17.60
2022-09-06T18:02:04.981Z,17.50
2022-09-06T18:04:32.159Z,17.50
2022-09-06T18:06:59.341Z,17.40
2022-09-06T18:09:26.215Z,17.30
2022-09-06T18:11:53.181Z,17.20
2022-09-06T18:14:21.015Z,17.20
2022-09-06T18:16:51.293Z,17.00
2022-09-06T18:19:18.934Z,17.00
2022-09-06T18:21:47.341Z,17.00
2022-09-06T18:24:15.084Z,16.90
2022-09-06T18:26:43.168Z,16.80
2022-09-06T18:29:16.599Z,16.80
2022-09-06T18:31:44.457Z,16.70
2022-09-06T18:34:12.680Z,16.70
2022-09-06T18:36:40.215Z,16.60
2022-09-06T18:39:07.547Z,16.50
2022-09-06T18:41:53.597Z,16.40
2022-09-06T18:44:21.703Z,16.40
2022-09-06T18:46:49.843Z,16.40
2022-09-06T18:49:17.628Z,16.40
2022-09-06T18:51:45.681Z,16.30
2022-09-06T18:54:13.706Z,16.30
2022-09-06T18:56:42.074Z,16.30
2022-09-06T18:59:10.954Z,16.20
2022-09-06T19:01:40.984Z,16.10
2022-09-06T19:04:08.269Z,16.10
2022-09-06T19:06:38.109Z,16.00
2022-09-06T19:09:11.835Z,16.00
2022-09-06T19:11:41.680Z,16.00
2022-09-06T19:14:08.993Z,15.90
2022-09-06T19:16:36.164Z,16.00
2022-09-06T19:19:09.984Z,15.90
2022-09-06T19:21:41.749Z,15.80
2022-09-06T19:24:12.261Z,15.70
2022-09-06T19:26:44.151Z,15.70
2022-09-06T19:29:17.882Z,15.80
2022-09-06T19:31:47.112Z,15.80
2022-09-06T19:34:15.656Z,15.80
2022-09-06T19:36:44.407Z,15.70
2022-09-06T19:39:16.482Z,15.70
2022-09-06T19:41:46.735Z,15.60
2022-09-06T19:44:18.565Z,15.50
2022-09-06T19:46:47.001Z,15.60
2022-09-06T19:49:21.842Z,15.60
2022-09-06T19:51:50.703Z,15.60
2022-09-06T19:54:18.739Z,15.50
2022-09-06T19:56:46.975Z,15.40
2022-09-06T19:59:15.839Z,15.40
2022-09-06T20:01:45.319Z,15.30
2022-09-06T20:04:14.484Z,15.20
2022-09-06T20:06:42.211Z,15.10
2022-09-06T20:09:11.764Z,15.10
2022-09-06T20:11:40.852Z,15.10
2022-09-06T20:14:09.682Z,15.00
2022-09-06T20:16:41.205Z,15.00
2022-09-06T20:19:09.213Z,14.90
2022-09-06T20:21:36.147Z,14.90
2022-09-06T20:24:03.373Z,14.80
2022-09-06T20:26:30.840Z,14.80
2022-09-06T20:29:00.863Z,14.70
2022-09-06T20:31:30.087Z,14.70
2022-09-06T20:34:03.101Z,14.70
2022-09-06T20:36:30.577Z,14.70
2022-09-06T20:38:57.789Z,14.60
2022-09-06T20:41:27.213Z,14.50
2022-09-06T20:43:59.653Z,14.40
2022-09-06T20:46:30.827Z,14.40
2022-09-06T20:49:01.906Z,14.40
2022-09-06T20:51:29.023Z,14.30
2022-09-06T20:54:00.182Z,14.30
2022-09-06T20:56:33.850Z,14.30
2022-09-06T20:59:04.260Z,14.30
2022-09-06T21:01:40.038Z,14.20
2022-09-06T21:04:09.648Z,14.30
2022-09-06T21:06:39.362Z,14.20
2022-09-06T21:09:11.056Z,14.10
2022-09-06T21:11:38.310Z,14.10
2022-09-06T21:14:07.530Z,14.10
2022-09-06T21:16:34.648Z,14.10
2022-09-06T21:19:06.373Z,14.20
2022-09-06T21:21:35.269Z,14.20
2022-09-06T21:24:05.311Z,14.20
2022-09-06T21:26:33.334Z,14.20
2022-09-06T21:29:00.313Z,14.10
2022-09-06T21:31:31.380Z,14.10
2022-09-06T21:34:03.839Z,14.10
2022-09-06T21:36:39.410Z,14.00
2022-09-06T21:39:12.433Z,14.00
2022-09-06T21:41:42.426Z,13.90
2022-09-06T21:44:10.601Z,13.90
2022-09-06T21:46:39.300Z,13.90
2022-09-06T21:49:12.349Z,13.90
2022-09-06T21:51:40.440Z,13.90
2022-09-06T21:54:07.433Z,13.80
2022-09-06T21:56:36.627Z,13.80
2022-09-06T21:59:05.806Z,13.80
2022-09-06T22:01:35.622Z,13.90
2022-09-06T22:04:03.564Z,13.80
2022-09-06T22:06:32.866Z,13.80
2022-09-06T22:09:04.288Z,13.80
2022-09-06T22:11:34.171Z,13.80
2022-09-06T22:14:05.576Z,13.70
2022-09-06T22:16:36.788Z,13.70
2022-09-06T22:19:05.871Z,13.70
2022-09-06T22:21:34.108Z,13.60
2022-09-06T22:24:07.831Z,13.60
2022-09-06T22:26:37.624Z,13.60
2022-09-06T22:29:08.372Z,13.60
2022-09-06T22:31:36.609Z,13.50
2022-09-06T22:34:04.213Z,13.50
2022-09-06T22:36:31.668Z,13.40
2022-09-06T22:38:59.230Z,13.30
2022-09-06T22:41:29.303Z,13.30
2022-09-06T22:43:56.821Z,13.30
2022-09-06T22:46:24.396Z,13.20
2022-09-06T22:48:52.089Z,13.20
2022-09-06T22:51:19.038Z,13.10
2022-09-06T22:53:45.968Z,13.20
2022-09-06T22:56:12.963Z,13.10
2022-09-06T22:58:39.904Z,13.00
2022-09-06T23:01:13.805Z,13.00
2022-09-06T23:03:42.298Z,13.00
2022-09-06T23:06:09.752Z,13.00
2022-09-06T23:08:39.664Z,12.90
2022-09-06T23:11:11.700Z,12.90
2022-09-06T23:13:43.456Z,12.90
2022-09-06T23:16:17.292Z,12.80
2022-09-06T23:18:45.303Z,12.80
2022-09-06T23:21:19.335Z,12.80
2022-09-06T23:23:48.513Z,12.80
2022-09-06T23:26:22.800Z,12.80
2022-09-06T23:28:56.795Z,12.80
2022-09-06T23:31:28.002Z,12.80
2022-09-06T23:33:57.502Z,12.80
2022-09-06T23:36:25.013Z,12.70
2022-09-06T23:38:52.416Z,12.70
2022-09-06T23:41:19.548Z,12.70
2022-09-06T23:43:46.471Z,12.60
2022-09-06T23:46:14.959Z,12.60
2022-09-06T23:48:42.894Z,12.70
2022-09-06T23:51:10.730Z,12.70
2022-09-06T23:53:37.864Z,12.70
2022-09-06T23:56:05.807Z,12.60
2022-09-06T23:58:33.229Z,12.60
